sensor_id;sensor_type;location;lat;lon;timestamp;P1;durP1;ratioP1;P2;durP2;ratioP2
5022;SDS011;2530;47.990;7.866;2023-03-08T00:01:02;13.82;;;10.05;;
5022;SDS011;2530;47.990;7.866;2023-03-08T00:03:35;14.55;;;9.70;;
5022;SDS011;2530;47.990;7.866;2023-03-08T00:06:04;12.30;;;9.60;;
5022;SDS011;2530;47.990;7.866;2023-03-08T00:08:31;13.75;;;10.30;;
5022;SDS011;2530;47.990;7.866;2023-03-08T00:10:56;12.03;;;9.57;;
5022;SDS011;2530;47.990;7.866;2023-03-08T00:13:22;11.70;;;9.30;;
5022;SDS011;2530;47.990;7.866;2023-03-08T00:15:47;12.18;;;9.57;;
5022;SDS011;2530;47.990;7.866;2023-03-08T00:18:13;15.85;;;10.25;;
5022;SDS011;2530;47.990;7.866;2023-03-08T00:20:38;12.73;;;9.60;;
5022;SDS011;2530;47.990;7.866;2023-03-08T00:23:04;12.68;;;9.10;;
5022;SDS011;2530;47.990;7.866;2023-03-08T00:25:29;11.33;;;9.17;;
5022;SDS011;2530;47.990;7.866;2023-03-08T00:27:55;13.00;;;9.30;;
5022;SDS011;2530;47.990;7.866;2023-03-08T00:30:20;13.23;;;9.80;;
5022;SDS011;2530;47.990;7.866;2023-03-08T00:32:46;13.00;;;8.33;;
5022;SDS011;2530;47.990;7.866;2023-03-08T00:35:12;12.10;;;9.30;;
5022;SDS011;2530;47.990;7.866;2023-03-08T00:37:37;11.10;;;8.87;;
5022;SDS011;2530;47.990;7.866;2023-03-08T00:40:03;11.23;;;8.70;;
5022;SDS011;2530;47.990;7.866;2023-03-08T00:42:29;9.80;;;8.10;;
5022;SDS011;2530;47.990;7.866;2023-03-08T00:44:55;11.00;;;8.17;;
5022;SDS011;2530;47.990;7.866;2023-03-08T00:47:20;9.87;;;8.17;;
5022;SDS011;2530;47.990;7.866;2023-03-08T00:49:46;12.97;;;8.77;;
5022;SDS011;2530;47.990;7.866;2023-03-08T00:52:11;12.35;;;8.77;;
5022;SDS011;2530;47.990;7.866;2023-03-08T00:54:37;11.27;;;8.57;;
5022;SDS011;2530;47.990;7.866;2023-03-08T00:57:02;12.93;;;8.60;;
5022;SDS011;2530;47.990;7.866;2023-03-08T00:59:28;10.10;;;7.90;;
5022;SDS011;2530;47.990;7.866;2023-03-08T01:01:53;10.30;;;7.30;;
5022;SDS011;2530;47.990;7.866;2023-03-08T01:04:19;10.20;;;7.20;;
5022;SDS011;2530;47.990;7.866;2023-03-08T01:06:44;9.07;;;7.30;;
5022;SDS011;2530;47.990;7.866;2023-03-08T01:09:10;8.97;;;7.27;;
5022;SDS011;2530;47.990;7.866;2023-03-08T01:11:36;9.60;;;7.20;;
5022;SDS011;2530;47.990;7.866;2023-03-08T01:14:03;9.52;;;6.90;;
5022;SDS011;2530;47.990;7.866;2023-03-08T01:16:30;8.00;;;7.10;;
5022;SDS011;2530;47.990;7.866;2023-03-08T01:18:57;8.77;;;6.55;;
5022;SDS011;2530;47.990;7.866;2023-03-08T01:21:24;9.07;;;6.90;;
5022;SDS011;2530;47.990;7.866;2023-03-08T01:23:50;9.63;;;7.00;;
5022;SDS011;2530;47.990;7.866;2023-03-08T01:26:17;8.40;;;7.40;;
5022;SDS011;2530;47.990;7.866;2023-03-08T01:28:44;9.73;;;7.07;;
5022;SDS011;2530;47.990;7.866;2023-03-08T01:31:11;9.18;;;6.35;;
5022;SDS011;2530;47.990;7.866;2023-03-08T01:33:45;10.15;;;7.05;;
5022;SDS011;2530;47.990;7.866;2023-03-08T01:36:12;8.65;;;6.00;;
5022;SDS011;2530;47.990;7.866;2023-03-08T01:38:40;8.52;;;7.07;;
5022;SDS011;2530;47.990;7.866;2023-03-08T01:41:06;9.13;;;6.00;;
5022;SDS011;2530;47.990;7.866;2023-03-08T01:43:37;8.27;;;6.15;;
5022;SDS011;2530;47.990;7.866;2023-03-08T01:46:17;9.15;;;6.90;;
5022;SDS011;2530;47.990;7.866;2023-03-08T01:54:30;8.70;;;6.40;;
5022;SDS011;2530;47.990;7.866;2023-03-08T01:57:00;7.75;;;6.03;;
5022;SDS011;2530;47.990;7.866;2023-03-08T01:59:32;8.02;;;6.30;;
5022;SDS011;2530;47.990;7.866;2023-03-08T02:02:02;10.80;;;7.10;;
5022;SDS011;2530;47.990;7.866;2023-03-08T02:04:28;8.90;;;6.90;;
5022;SDS011;2530;47.990;7.866;2023-03-08T02:06:54;10.47;;;7.23;;
5022;SDS011;2530;47.990;7.866;2023-03-08T02:09:20;9.13;;;7.00;;
5022;SDS011;2530;47.990;7.866;2023-03-08T02:11:45;8.73;;;6.93;;
5022;SDS011;2530;47.990;7.866;2023-03-08T02:14:12;8.27;;;6.60;;
5022;SDS011;2530;47.990;7.866;2023-03-08T02:16:38;8.90;;;6.83;;
5022;SDS011;2530;47.990;7.866;2023-03-08T02:19:05;9.43;;;7.60;;
5022;SDS011;2530;47.990;7.866;2023-03-08T02:21:36;10.75;;;7.65;;
5022;SDS011;2530;47.990;7.866;2023-03-08T02:24:05;8.27;;;6.70;;
5022;SDS011;2530;47.990;7.866;2023-03-08T02:26:42;11.23;;;7.38;;
5022;SDS011;2530;47.990;7.866;2023-03-08T02:29:07;9.50;;;7.10;;
5022;SDS011;2530;47.990;7.866;2023-03-08T02:31:33;8.77;;;6.70;;
5022;SDS011;2530;47.990;7.866;2023-03-08T02:33:59;9.77;;;7.10;;
5022;SDS011;2530;47.990;7.866;2023-03-08T02:36:24;7.67;;;6.77;;
5022;SDS011;2530;47.990;7.866;2023-03-08T02:38:50;8.88;;;6.80;;
5022;SDS011;2530;47.990;7.866;2023-03-08T02:41:15;9.88;;;7.03;;
5022;SDS011;2530;47.990;7.866;2023-03-08T02:43:41;8.50;;;6.38;;
5022;SDS011;2530;47.990;7.866;2023-03-08T02:46:09;10.50;;;6.93;;
5022;SDS011;2530;47.990;7.866;2023-03-08T02:48:35;7.50;;;6.47;;
5022;SDS011;2530;47.990;7.866;2023-03-08T02:51:01;6.93;;;6.23;;
5022;SDS011;2530;47.990;7.866;2023-03-08T02:53:26;9.50;;;7.47;;
5022;SDS011;2530;47.990;7.866;2023-03-08T02:55:52;10.73;;;7.43;;
5022;SDS011;2530;47.990;7.866;2023-03-08T02:58:17;9.25;;;6.90;;
5022;SDS011;2530;47.990;7.866;2023-03-08T03:00:43;10.07;;;7.03;;
5022;SDS011;2530;47.990;7.866;2023-03-08T03:03:08;11.20;;;6.63;;
5022;SDS011;2530;47.990;7.866;2023-03-08T03:05:34;7.87;;;6.43;;
5022;SDS011;2530;47.990;7.866;2023-03-08T03:08:04;7.90;;;6.70;;
5022;SDS011;2530;47.990;7.866;2023-03-08T03:10:29;9.57;;;6.90;;
5022;SDS011;2530;47.990;7.866;2023-03-08T03:12:55;9.93;;;7.23;;
5022;SDS011;2530;47.990;7.866;2023-03-08T03:15:21;8.67;;;6.83;;
5022;SDS011;2530;47.990;7.866;2023-03-08T03:17:46;8.97;;;6.40;;
5022;SDS011;2530;47.990;7.866;2023-03-08T03:20:12;10.73;;;6.77;;
5022;SDS011;2530;47.990;7.866;2023-03-08T03:22:37;9.60;;;7.20;;
5022;SDS011;2530;47.990;7.866;2023-03-08T03:25:03;9.80;;;6.70;;
5022;SDS011;2530;47.990;7.866;2023-03-08T03:27:29;9.20;;;6.78;;
5022;SDS011;2530;47.990;7.866;2023-03-08T03:29:55;9.00;;;6.53;;
5022;SDS011;2530;47.990;7.866;2023-03-08T03:32:20;7.72;;;6.70;;
5022;SDS011;2530;47.990;7.866;2023-03-08T03:34:46;9.30;;;6.90;;
5022;SDS011;2530;47.990;7.866;2023-03-08T03:37:12;6.93;;;6.00;;
5022;SDS011;2530;47.990;7.866;2023-03-08T03:39:37;8.73;;;6.40;;
5022;SDS011;2530;47.990;7.866;2023-03-08T03:42:04;7.18;;;5.65;;
5022;SDS011;2530;47.990;7.866;2023-03-08T03:44:31;9.98;;;6.75;;
5022;SDS011;2530;47.990;7.866;2023-03-08T03:46:56;7.63;;;6.10;;
5022;SDS011;2530;47.990;7.866;2023-03-08T03:49:22;7.95;;;6.70;;
5022;SDS011;2530;47.990;7.866;2023-03-08T03:51:48;8.18;;;6.40;;
5022;SDS011;2530;47.990;7.866;2023-03-08T03:54:13;7.70;;;6.15;;
5022;SDS011;2530;47.990;7.866;2023-03-08T03:56:39;8.30;;;6.07;;
5022;SDS011;2530;47.990;7.866;2023-03-08T03:59:05;9.82;;;7.10;;
5022;SDS011;2530;47.990;7.866;2023-03-08T04:01:30;9.80;;;6.93;;
5022;SDS011;2530;47.990;7.866;2023-03-08T04:03:56;9.27;;;6.93;;
5022;SDS011;2530;47.990;7.866;2023-03-08T04:06:26;9.13;;;6.95;;
5022;SDS011;2530;47.990;7.866;2023-03-08T04:08:59;9.10;;;7.50;;
5022;SDS011;2530;47.990;7.866;2023-03-08T04:11:34;8.90;;;7.15;;
5022;SDS011;2530;47.990;7.866;2023-03-08T04:14:01;9.13;;;7.07;;
5022;SDS011;2530;47.990;7.866;2023-03-08T04:16:29;9.52;;;6.70;;
5022;SDS011;2530;47.990;7.866;2023-03-08T04:18:57;9.10;;;7.20;;
5022;SDS011;2530;47.990;7.866;2023-03-08T04:21:24;9.85;;;7.28;;
5022;SDS011;2530;47.990;7.866;2023-03-08T04:23:50;9.40;;;7.70;;
5022;SDS011;2530;47.990;7.866;2023-03-08T04:26:16;9.55;;;7.63;;
5022;SDS011;2530;47.990;7.866;2023-03-08T04:28:42;10.57;;;8.00;;
5022;SDS011;2530;47.990;7.866;2023-03-08T04:31:15;10.35;;;7.55;;
5022;SDS011;2530;47.990;7.866;2023-03-08T04:33:45;10.38;;;7.72;;
5022;SDS011;2530;47.990;7.866;2023-03-08T04:36:11;9.30;;;7.50;;
5022;SDS011;2530;47.990;7.866;2023-03-08T04:38:37;11.93;;;8.00;;
5022;SDS011;2530;47.990;7.866;2023-03-08T04:41:02;9.32;;;7.80;;
5022;SDS011;2530;47.990;7.866;2023-03-08T04:43:31;9.17;;;7.40;;
5022;SDS011;2530;47.990;7.866;2023-03-08T04:45:58;10.60;;;7.40;;
5022;SDS011;2530;47.990;7.866;2023-03-08T04:48:24;11.15;;;7.82;;
5022;SDS011;2530;47.990;7.866;2023-03-08T04:50:53;9.55;;;7.10;;
5022;SDS011;2530;47.990;7.866;2023-03-08T04:53:20;8.98;;;7.30;;
5022;SDS011;2530;47.990;7.866;2023-03-08T04:55:46;11.43;;;7.60;;
5022;SDS011;2530;47.990;7.866;2023-03-08T04:58:12;8.73;;;6.93;;
5022;SDS011;2530;47.990;7.866;2023-03-08T05:00:38;8.38;;;7.20;;
5022;SDS011;2530;47.990;7.866;2023-03-08T05:03:04;9.20;;;7.50;;
5022;SDS011;2530;47.990;7.866;2023-03-08T05:05:30;12.13;;;7.40;;
5022;SDS011;2530;47.990;7.866;2023-03-08T05:07:56;9.55;;;7.20;;
5022;SDS011;2530;47.990;7.866;2023-03-08T05:10:23;9.93;;;7.65;;
5022;SDS011;2530;47.990;7.866;2023-03-08T05:12:49;8.98;;;7.20;;
5022;SDS011;2530;47.990;7.866;2023-03-08T05:15:15;9.38;;;7.53;;
5022;SDS011;2530;47.990;7.866;2023-03-08T05:17:40;8.65;;;7.20;;
5022;SDS011;2530;47.990;7.866;2023-03-08T05:20:06;8.15;;;7.03;;
5022;SDS011;2530;47.990;7.866;2023-03-08T05:22:32;9.03;;;7.63;;
5022;SDS011;2530;47.990;7.866;2023-03-08T05:24:58;8.30;;;7.17;;
5022;SDS011;2530;47.990;7.866;2023-03-08T05:27:23;10.43;;;7.90;;
5022;SDS011;2530;47.990;7.866;2023-03-08T05:29:50;8.97;;;7.67;;
5022;SDS011;2530;47.990;7.866;2023-03-08T05:32:16;10.50;;;7.60;;
5022;SDS011;2530;47.990;7.866;2023-03-08T05:34:42;9.10;;;7.40;;
5022;SDS011;2530;47.990;7.866;2023-03-08T05:37:07;11.00;;;7.73;;
5022;SDS011;2530;47.990;7.866;2023-03-08T05:39:33;9.90;;;7.80;;
5022;SDS011;2530;47.990;7.866;2023-03-08T05:41:58;9.60;;;7.10;;
5022;SDS011;2530;47.990;7.866;2023-03-08T05:44:24;10.70;;;7.47;;
5022;SDS011;2530;47.990;7.866;2023-03-08T05:46:49;9.87;;;8.00;;
5022;SDS011;2530;47.990;7.866;2023-03-08T05:49:15;9.23;;;7.90;;
5022;SDS011;2530;47.990;7.866;2023-03-08T05:51:41;9.23;;;7.53;;
5022;SDS011;2530;47.990;7.866;2023-03-08T05:54:06;8.07;;;6.83;;
5022;SDS011;2530;47.990;7.866;2023-03-08T05:56:32;10.70;;;7.57;;
5022;SDS011;2530;47.990;7.866;2023-03-08T05:58:57;9.20;;;7.70;;
5022;SDS011;2530;47.990;7.866;2023-03-08T06:01:24;9.93;;;7.80;;
5022;SDS011;2530;47.990;7.866;2023-03-08T06:03:51;9.43;;;7.40;;
5022;SDS011;2530;47.990;7.866;2023-03-08T06:06:18;9.25;;;7.75;;
5022;SDS011;2530;47.990;7.866;2023-03-08T06:08:45;11.37;;;7.53;;
5022;SDS011;2530;47.990;7.866;2023-03-08T06:11:11;10.40;;;7.75;;
5022;SDS011;2530;47.990;7.866;2023-03-08T06:13:37;9.60;;;7.75;;
5022;SDS011;2530;47.990;7.866;2023-03-08T06:16:03;11.25;;;7.60;;
5022;SDS011;2530;47.990;7.866;2023-03-08T06:18:29;7.93;;;7.00;;
5022;SDS011;2530;47.990;7.866;2023-03-08T06:21:05;8.85;;;7.60;;
5022;SDS011;2530;47.990;7.866;2023-03-08T06:23:36;10.77;;;7.40;;
5022;SDS011;2530;47.990;7.866;2023-03-08T06:26:02;10.17;;;8.13;;
5022;SDS011;2530;47.990;7.866;2023-03-08T06:28:29;10.70;;;8.10;;
5022;SDS011;2530;47.990;7.866;2023-03-08T06:30:55;9.65;;;7.40;;
5022;SDS011;2530;47.990;7.866;2023-03-08T06:33:22;9.20;;;7.35;;
5022;SDS011;2530;47.990;7.866;2023-03-08T06:35:56;10.30;;;7.60;;
5022;SDS011;2530;47.990;7.866;2023-03-08T06:38:25;11.30;;;7.88;;
5022;SDS011;2530;47.990;7.866;2023-03-08T06:40:51;13.30;;;8.27;;
5022;SDS011;2530;47.990;7.866;2023-03-08T06:43:17;10.37;;;8.17;;
5022;SDS011;2530;47.990;7.866;2023-03-08T06:45:43;9.20;;;7.17;;
5022;SDS011;2530;47.990;7.866;2023-03-08T06:48:08;7.18;;;6.40;;
5022;SDS011;2530;47.990;7.866;2023-03-08T06:50:34;8.17;;;7.37;;
5022;SDS011;2530;47.990;7.866;2023-03-08T06:52:59;10.80;;;7.40;;
5022;SDS011;2530;47.990;7.866;2023-03-08T06:55:25;9.00;;;6.80;;
5022;SDS011;2530;47.990;7.866;2023-03-08T06:57:51;12.55;;;8.05;;
5022;SDS011;2530;47.990;7.866;2023-03-08T07:00:19;10.65;;;7.63;;
5022;SDS011;2530;47.990;7.866;2023-03-08T07:02:45;9.10;;;7.30;;
5022;SDS011;2530;47.990;7.866;2023-03-08T07:05:12;11.18;;;8.30;;
5022;SDS011;2530;47.990;7.866;2023-03-08T07:07:40;11.32;;;8.30;;
5022;SDS011;2530;47.990;7.866;2023-03-08T07:10:09;10.73;;;8.13;;
5022;SDS011;2530;47.990;7.866;2023-03-08T07:12:36;9.70;;;7.75;;
5022;SDS011;2530;47.990;7.866;2023-03-08T07:15:07;10.63;;;8.75;;
5022;SDS011;2530;47.990;7.866;2023-03-08T07:17:34;11.80;;;8.47;;
5022;SDS011;2530;47.990;7.866;2023-03-08T07:20:01;10.20;;;7.90;;
5022;SDS011;2530;47.990;7.866;2023-03-08T07:22:29;10.68;;;8.20;;
5022;SDS011;2530;47.990;7.866;2023-03-08T07:24:55;11.38;;;8.23;;
5022;SDS011;2530;47.990;7.866;2023-03-08T07:27:21;10.25;;;8.00;;
5022;SDS011;2530;47.990;7.866;2023-03-08T07:29:46;10.38;;;8.18;;
5022;SDS011;2530;47.990;7.866;2023-03-08T07:32:12;10.35;;;7.90;;
5022;SDS011;2530;47.990;7.866;2023-03-08T07:34:37;9.77;;;7.57;;
5022;SDS011;2530;47.990;7.866;2023-03-08T07:37:03;11.20;;;8.00;;
5022;SDS011;2530;47.990;7.866;2023-03-08T07:39:28;12.67;;;8.20;;
5022;SDS011;2530;47.990;7.866;2023-03-08T07:41:54;11.23;;;8.27;;
5022;SDS011;2530;47.990;7.866;2023-03-08T07:44:19;11.23;;;8.17;;
5022;SDS011;2530;47.990;7.866;2023-03-08T07:46:45;10.17;;;7.97;;
5022;SDS011;2530;47.990;7.866;2023-03-08T07:49:12;9.53;;;7.53;;
5022;SDS011;2530;47.990;7.866;2023-03-08T07:51:37;10.13;;;7.50;;
5022;SDS011;2530;47.990;7.866;2023-03-08T07:54:03;7.40;;;6.40;;
5022;SDS011;2530;47.990;7.866;2023-03-08T07:56:28;4.30;;;3.30;;
5022;SDS011;2530;47.990;7.866;2023-03-08T07:58:55;2.80;;;2.50;;
5022;SDS011;2530;47.990;7.866;2023-03-08T08:01:21;2.90;;;2.30;;
5022;SDS011;2530;47.990;7.866;2023-03-08T08:03:47;2.03;;;1.80;;
5022;SDS011;2530;47.990;7.866;2023-03-08T08:06:14;1.20;;;1.10;;
5022;SDS011;2530;47.990;7.866;2023-03-08T08:08:39;1.42;;;1.10;;
5022;SDS011;2530;47.990;7.866;2023-03-08T08:11:14;1.10;;;0.83;;
5022;SDS011;2530;47.990;7.866;2023-03-08T08:13:41;1.02;;;0.90;;
5022;SDS011;2530;47.990;7.866;2023-03-08T08:16:06;1.00;;;0.90;;
5022;SDS011;2530;47.990;7.866;2023-03-08T08:18:32;2.20;;;1.33;;
5022;SDS011;2530;47.990;7.866;2023-03-08T08:21:05;2.15;;;1.20;;
5022;SDS011;2530;47.990;7.866;2023-03-08T08:23:33;2.08;;;1.00;;
5022;SDS011;2530;47.990;7.866;2023-03-08T08:25:59;1.63;;;0.90;;
5022;SDS011;2530;47.990;7.866;2023-03-08T08:28:27;1.70;;;1.00;;
5022;SDS011;2530;47.990;7.866;2023-03-08T08:31:00;1.30;;;0.80;;
5022;SDS011;2530;47.990;7.866;2023-03-08T08:33:28;3.67;;;1.20;;
5022;SDS011;2530;47.990;7.866;2023-03-08T08:35:54;1.20;;;0.82;;
5022;SDS011;2530;47.990;7.866;2023-03-08T08:38:20;0.80;;;0.80;;
5022;SDS011;2530;47.990;7.866;2023-03-08T08:40:46;1.50;;;1.30;;
5022;SDS011;2530;47.990;7.866;2023-03-08T08:43:12;1.10;;;0.80;;
5022;SDS011;2530;47.990;7.866;2023-03-08T08:45:41;1.00;;;0.90;;
5022;SDS011;2530;47.990;7.866;2023-03-08T08:48:11;0.98;;;0.70;;
5022;SDS011;2530;47.990;7.866;2023-03-08T08:50:39;0.90;;;0.70;;
5022;SDS011;2530;47.990;7.866;2023-03-08T08:53:06;0.98;;;0.55;;
5022;SDS011;2530;47.990;7.866;2023-03-08T08:55:33;0.85;;;0.70;;
5022;SDS011;2530;47.990;7.866;2023-03-08T08:58:00;0.80;;;0.50;;
5022;SDS011;2530;47.990;7.866;2023-03-08T09:00:26;0.70;;;0.68;;
5022;SDS011;2530;47.990;7.866;2023-03-08T09:02:52;0.75;;;0.50;;
5022;SDS011;2530;47.990;7.866;2023-03-08T09:05:17;0.70;;;0.52;;
5022;SDS011;2530;47.990;7.866;2023-03-08T09:07:44;2.50;;;0.90;;
5022;SDS011;2530;47.990;7.866;2023-03-08T09:10:09;0.90;;;0.50;;
5022;SDS011;2530;47.990;7.866;2023-03-08T09:12:35;0.70;;;0.50;;
5022;SDS011;2530;47.990;7.866;2023-03-08T09:15:01;0.90;;;0.63;;
5022;SDS011;2530;47.990;7.866;2023-03-08T09:17:27;1.20;;;0.50;;
5022;SDS011;2530;47.990;7.866;2023-03-08T09:19:53;0.60;;;0.50;;
5022;SDS011;2530;47.990;7.866;2023-03-08T09:22:18;1.65;;;0.80;;
5022;SDS011;2530;47.990;7.866;2023-03-08T09:24:44;0.95;;;0.80;;
5022;SDS011;2530;47.990;7.866;2023-03-08T09:27:12;2.60;;;0.80;;
5022;SDS011;2530;47.990;7.866;2023-03-08T09:29:37;0.70;;;0.50;;
5022;SDS011;2530;47.990;7.866;2023-03-08T09:32:03;1.10;;;0.90;;
5022;SDS011;2530;47.990;7.866;2023-03-08T09:34:29;0.80;;;0.60;;
5022;SDS011;2530;47.990;7.866;2023-03-08T09:36:55;1.10;;;0.90;;
5022;SDS011;2530;47.990;7.866;2023-03-08T09:39:20;1.50;;;0.60;;
5022;SDS011;2530;47.990;7.866;2023-03-08T09:41:50;0.90;;;0.70;;
5022;SDS011;2530;47.990;7.866;2023-03-08T09:49:39;2.00;;;1.30;;
5022;SDS011;2530;47.990;7.866;2023-03-08T09:54:53;1.00;;;0.63;;
5022;SDS011;2530;47.990;7.866;2023-03-08T09:57:24;0.90;;;0.70;;
5022;SDS011;2530;47.990;7.866;2023-03-08T09:59:58;2.00;;;0.77;;
5022;SDS011;2530;47.990;7.866;2023-03-08T10:02:33;1.50;;;0.80;;
5022;SDS011;2530;47.990;7.866;2023-03-08T10:05:17;0.80;;;0.70;;
5022;SDS011;2530;47.990;7.866;2023-03-08T10:08:01;0.80;;;0.70;;
5022;SDS011;2530;47.990;7.866;2023-03-08T10:10:39;1.30;;;0.90;;
5022;SDS011;2530;47.990;7.866;2023-03-08T10:15:45;1.20;;;1.08;;
5022;SDS011;2530;47.990;7.866;2023-03-08T10:18:28;3.00;;;1.10;;
5022;SDS011;2530;47.990;7.866;2023-03-08T10:20:59;1.20;;;0.80;;
5022;SDS011;2530;47.990;7.866;2023-03-08T10:23:27;1.00;;;0.90;;
5022;SDS011;2530;47.990;7.866;2023-03-08T10:25:56;1.90;;;0.90;;
5022;SDS011;2530;47.990;7.866;2023-03-08T10:28:23;1.83;;;1.30;;
5022;SDS011;2530;47.990;7.866;2023-03-08T10:30:51;1.00;;;0.90;;
5022;SDS011;2530;47.990;7.866;2023-03-08T10:33:18;1.60;;;1.20;;
5022;SDS011;2530;47.990;7.866;2023-03-08T10:36:01;3.25;;;1.75;;
5022;SDS011;2530;47.990;7.866;2023-03-08T10:38:32;1.90;;;1.50;;
5022;SDS011;2530;47.990;7.866;2023-03-08T10:43:39;1.42;;;1.20;;
5022;SDS011;2530;47.990;7.866;2023-03-08T10:46:12;2.17;;;1.33;;
5022;SDS011;2530;47.990;7.866;2023-03-08T10:48:42;1.75;;;1.40;;
5022;SDS011;2530;47.990;7.866;2023-03-08T10:51:19;1.60;;;1.20;;
5022;SDS011;2530;47.990;7.866;2023-03-08T10:53:59;1.70;;;1.60;;
5022;SDS011;2530;47.990;7.866;2023-03-08T10:58:59;2.00;;;1.30;;
5022;SDS011;2530;47.990;7.866;2023-03-08T11:01:34;2.67;;;1.90;;
5022;SDS011;2530;47.990;7.866;2023-03-08T11:04:17;1.90;;;1.50;;
5022;SDS011;2530;47.990;7.866;2023-03-08T11:06:44;1.50;;;1.30;;
5022;SDS011;2530;47.990;7.866;2023-03-08T11:09:21;1.80;;;1.60;;
5022;SDS011;2530;47.990;7.866;2023-03-08T11:11:50;2.20;;;1.60;;
5022;SDS011;2530;47.990;7.866;2023-03-08T11:14:16;2.20;;;1.70;;
5022;SDS011;2530;47.990;7.866;2023-03-08T11:19:25;1.60;;;1.50;;
5022;SDS011;2530;47.990;7.866;2023-03-08T11:22:22;2.00;;;1.80;;
5022;SDS011;2530;47.990;7.866;2023-03-08T11:27:34;1.65;;;1.48;;
5022;SDS011;2530;47.990;7.866;2023-03-08T11:35:36;2.40;;;1.80;;
5022;SDS011;2530;47.990;7.866;2023-03-08T11:38:16;3.60;;;1.70;;
5022;SDS011;2530;47.990;7.866;2023-03-08T11:43:54;2.20;;;1.48;;
5022;SDS011;2530;47.990;7.866;2023-03-08T11:55:06;2.20;;;1.10;;
5022;SDS011;2530;47.990;7.866;2023-03-08T11:57:58;1.35;;;1.10;;
5022;SDS011;2530;47.990;7.866;2023-03-08T12:00:38;0.90;;;0.70;;
5022;SDS011;2530;47.990;7.866;2023-03-08T12:03:11;1.40;;;1.10;;
5022;SDS011;2530;47.990;7.866;2023-03-08T12:05:41;1.20;;;0.90;;
5022;SDS011;2530;47.990;7.866;2023-03-08T12:08:20;1.10;;;0.98;;
5022;SDS011;2530;47.990;7.866;2023-03-08T12:11:04;1.23;;;0.90;;
5022;SDS011;2530;47.990;7.866;2023-03-08T12:13:37;1.20;;;0.70;;
5022;SDS011;2530;47.990;7.866;2023-03-08T12:19:00;1.30;;;0.80;;
5022;SDS011;2530;47.990;7.866;2023-03-08T12:27:27;2.67;;;1.07;;
5022;SDS011;2530;47.990;7.866;2023-03-08T12:29:54;1.02;;;0.80;;
5022;SDS011;2530;47.990;7.866;2023-03-08T12:32:25;1.00;;;0.70;;
5022;SDS011;2530;47.990;7.866;2023-03-08T12:35:05;2.92;;;0.77;;
5022;SDS011;2530;47.990;7.866;2023-03-08T12:45:44;1.40;;;0.70;;
5022;SDS011;2530;47.990;7.866;2023-03-08T12:48:37;0.90;;;0.60;;
5022;SDS011;2530;47.990;7.866;2023-03-08T12:53:38;1.13;;;0.60;;
5022;SDS011;2530;47.990;7.866;2023-03-08T12:58:39;1.30;;;1.20;;
5022;SDS011;2530;47.990;7.866;2023-03-08T13:01:33;1.10;;;0.80;;
5022;SDS011;2530;47.990;7.866;2023-03-08T13:03:59;1.48;;;0.90;;
5022;SDS011;2530;47.990;7.866;2023-03-08T13:06:46;3.50;;;0.80;;
5022;SDS011;2530;47.990;7.866;2023-03-08T13:09:19;0.95;;;0.65;;
5022;SDS011;2530;47.990;7.866;2023-03-08T13:18:44;1.30;;;0.70;;
5022;SDS011;2530;47.990;7.866;2023-03-08T13:25:43;0.70;;;0.52;;
5022;SDS011;2530;47.990;7.866;2023-03-08T13:28:33;0.90;;;0.60;;
5022;SDS011;2530;47.990;7.866;2023-03-08T13:31:02;0.90;;;0.70;;
5022;SDS011;2530;47.990;7.866;2023-03-08T13:33:38;1.25;;;0.80;;
5022;SDS011;2530;47.990;7.866;2023-03-08T13:36:25;1.17;;;0.50;;
5022;SDS011;2530;47.990;7.866;2023-03-08T13:38:59;1.40;;;0.70;;
5022;SDS011;2530;47.990;7.866;2023-03-08T13:41:37;2.00;;;0.50;;
5022;SDS011;2530;47.990;7.866;2023-03-08T13:44:15;3.28;;;1.42;;
5022;SDS011;2530;47.990;7.866;2023-03-08T13:46:41;0.90;;;0.70;;
5022;SDS011;2530;47.990;7.866;2023-03-08T13:51:50;1.40;;;0.50;;
5022;SDS011;2530;47.990;7.866;2023-03-08T13:54:24;0.90;;;0.70;;
5022;SDS011;2530;47.990;7.866;2023-03-08T13:56:54;1.40;;;0.70;;
5022;SDS011;2530;47.990;7.866;2023-03-08T13:59:24;0.55;;;0.50;;
5022;SDS011;2530;47.990;7.866;2023-03-08T14:01:50;0.80;;;0.50;;
5022;SDS011;2530;47.990;7.866;2023-03-08T14:04:23;1.00;;;0.50;;
5022;SDS011;2530;47.990;7.866;2023-03-08T14:06:52;0.90;;;0.60;;
5022;SDS011;2530;47.990;7.866;2023-03-08T14:09:19;0.98;;;0.60;;
5022;SDS011;2530;47.990;7.866;2023-03-08T14:11:49;0.90;;;0.60;;
5022;SDS011;2530;47.990;7.866;2023-03-08T14:14:29;0.60;;;0.50;;
5022;SDS011;2530;47.990;7.866;2023-03-08T14:17:00;1.27;;;0.40;;
5022;SDS011;2530;47.990;7.866;2023-03-08T14:19:27;0.50;;;0.40;;
5022;SDS011;2530;47.990;7.866;2023-03-08T14:22:14;3.50;;;0.50;;
5022;SDS011;2530;47.990;7.866;2023-03-08T14:24:42;1.48;;;0.70;;
5022;SDS011;2530;47.990;7.866;2023-03-08T14:29:41;0.90;;;0.70;;
5022;SDS011;2530;47.990;7.866;2023-03-08T14:37:20;0.70;;;0.57;;
5022;SDS011;2530;47.990;7.866;2023-03-08T14:39:50;0.73;;;0.50;;
5022;SDS011;2530;47.990;7.866;2023-03-08T14:42:24;0.90;;;0.50;;
5022;SDS011;2530;47.990;7.866;2023-03-08T14:44:55;0.80;;;0.60;;
5022;SDS011;2530;47.990;7.866;2023-03-08T14:47:25;2.10;;;0.60;;
5022;SDS011;2530;47.990;7.866;2023-03-08T14:50:01;0.90;;;0.60;;
5022;SDS011;2530;47.990;7.866;2023-03-08T14:52:49;1.05;;;0.45;;
5022;SDS011;2530;47.990;7.866;2023-03-08T14:55:20;0.70;;;0.60;;
5022;SDS011;2530;47.990;7.866;2023-03-08T14:57:50;1.65;;;0.90;;
5022;SDS011;2530;47.990;7.866;2023-03-08T15:00:18;0.80;;;0.63;;
5022;SDS011;2530;47.990;7.866;2023-03-08T15:02:44;1.70;;;0.60;;
5022;SDS011;2530;47.990;7.866;2023-03-08T15:05:20;1.30;;;0.60;;
5022;SDS011;2530;47.990;7.866;2023-03-08T15:07:47;0.70;;;0.60;;
5022;SDS011;2530;47.990;7.866;2023-03-08T15:10:36;0.60;;;0.60;;
5022;SDS011;2530;47.990;7.866;2023-03-08T15:13:03;1.60;;;0.82;;
5022;SDS011;2530;47.990;7.866;2023-03-08T15:15:32;0.90;;;0.70;;
5022;SDS011;2530;47.990;7.866;2023-03-08T15:17:57;1.23;;;0.80;;
5022;SDS011;2530;47.990;7.866;2023-03-08T15:20:23;1.33;;;0.80;;
5022;SDS011;2530;47.990;7.866;2023-03-08T15:22:49;0.80;;;0.60;;
5022;SDS011;2530;47.990;7.866;2023-03-08T15:25:29;0.63;;;0.50;;
5022;SDS011;2530;47.990;7.866;2023-03-08T15:27:57;1.70;;;1.00;;
5022;SDS011;2530;47.990;7.866;2023-03-08T15:30:24;1.10;;;0.90;;
5022;SDS011;2530;47.990;7.866;2023-03-08T15:32:51;1.00;;;0.70;;
5022;SDS011;2530;47.990;7.866;2023-03-08T15:35:17;1.10;;;0.70;;
5022;SDS011;2530;47.990;7.866;2023-03-08T15:37:43;1.10;;;0.60;;
5022;SDS011;2530;47.990;7.866;2023-03-08T15:40:13;1.60;;;0.52;;
5022;SDS011;2530;47.990;7.866;2023-03-08T15:42:47;1.30;;;0.90;;
5022;SDS011;2530;47.990;7.866;2023-03-08T15:45:12;1.52;;;0.60;;
5022;SDS011;2530;47.990;7.866;2023-03-08T15:47:39;0.65;;;0.60;;
5022;SDS011;2530;47.990;7.866;2023-03-08T15:50:05;1.10;;;0.80;;
5022;SDS011;2530;47.990;7.866;2023-03-08T15:52:42;1.88;;;0.70;;
5022;SDS011;2530;47.990;7.866;2023-03-08T15:55:09;1.40;;;0.60;;
5022;SDS011;2530;47.990;7.866;2023-03-08T15:57:36;1.13;;;1.02;;
5022;SDS011;2530;47.990;7.866;2023-03-08T16:00:03;1.20;;;0.68;;
5022;SDS011;2530;47.990;7.866;2023-03-08T16:02:32;0.70;;;0.70;;
5022;SDS011;2530;47.990;7.866;2023-03-08T16:04:59;0.80;;;0.68;;
5022;SDS011;2530;47.990;7.866;2023-03-08T16:07:25;0.82;;;0.70;;
5022;SDS011;2530;47.990;7.866;2023-03-08T16:09:51;0.90;;;0.60;;
5022;SDS011;2530;47.990;7.866;2023-03-08T16:12:16;0.83;;;0.70;;
5022;SDS011;2530;47.990;7.866;2023-03-08T16:14:45;0.80;;;0.60;;
5022;SDS011;2530;47.990;7.866;2023-03-08T16:17:15;1.98;;;1.00;;
5022;SDS011;2530;47.990;7.866;2023-03-08T16:19:41;1.30;;;0.80;;
5022;SDS011;2530;47.990;7.866;2023-03-08T16:22:08;1.00;;;0.70;;
5022;SDS011;2530;47.990;7.866;2023-03-08T16:24:34;0.90;;;0.80;;
5022;SDS011;2530;47.990;7.866;2023-03-08T16:26:59;1.27;;;0.70;;
5022;SDS011;2530;47.990;7.866;2023-03-08T16:29:28;1.08;;;0.73;;
5022;SDS011;2530;47.990;7.866;2023-03-08T16:31:54;1.30;;;0.90;;
5022;SDS011;2530;47.990;7.866;2023-03-08T16:34:22;0.88;;;0.77;;
5022;SDS011;2530;47.990;7.866;2023-03-08T16:36:48;1.50;;;0.80;;
5022;SDS011;2530;47.990;7.866;2023-03-08T16:39:14;1.58;;;0.80;;
5022;SDS011;2530;47.990;7.866;2023-03-08T16:41:40;1.27;;;0.93;;
5022;SDS011;2530;47.990;7.866;2023-03-08T16:44:06;1.30;;;0.90;;
5022;SDS011;2530;47.990;7.866;2023-03-08T16:46:40;1.88;;;0.85;;
5022;SDS011;2530;47.990;7.866;2023-03-08T16:49:05;1.35;;;1.13;;